Time;durP1;ratioP1;P1;durP2;ratioP2;P2;SDS_P1;SDS_P2;PMS_P1;PMS_P2;Temp;Humidity;BMP_temperature;BMP_pressure;BME280_temperature;BME280_humidity;BME280_pressure;Samples;Min_cycle;Max_cycle;Signal;HPM_P1;HPM_P2
2023/07/10 00:01:06;;;;;;;23.85;10.73;;;19.50;99.90;;;;;;5020640;28;20046;-49
2023/07/10 00:03:32;;;;;;;22.15;10.50;;;19.60;99.90;;;;;;5020137;28;20120;-52
2023/07/10 00:05:59;;;;;;;18.85;10.98;;;19.60;99.90;;;;;;5020499;28;20442;-49
2023/07/10 00:08:25;;;;;;;20.27;10.60;;;19.60;99.90;;;;;;5021166;28;20041;-50
2023/07/10 00:10:51;;;;;;;19.63;11.00;;;19.60;99.90;;;;;;5003145;28;20107;-51
2023/07/10 00:13:23;;;;;;;18.42;11.75;;;19.60;99.90;;;;;;5009210;28;20124;-50
2023/07/10 00:15:50;;;;;;;18.05;11.55;;;19.60;99.90;;;;;;5019210;28;20037;-50
2023/07/10 00:18:19;;;;;;;20.63;11.40;;;19.60;99.90;;;;;;5021556;28;20091;-51
2023/07/10 00:20:47;;;;;;;19.23;12.20;;;19.60;99.90;;;;;;5019960;28;20038;-49
2023/07/10 00:23:14;;;;;;;24.55;11.30;;;19.60;99.90;;;;;;5004261;28;20057;-50
2023/07/10 00:25:40;;;;;;;18.13;11.63;;;19.60;99.90;;;;;;4996085;28;20428;-51
2023/07/10 00:28:32;;;;;;;18.50;11.75;;;19.60;99.90;;;;;;5000855;28;20034;-52
2023/07/10 00:30:58;;;;;;;21.73;12.93;;;19.60;99.90;;;;;;4998107;28;20046;-50
2023/07/10 00:33:24;;;;;;;19.55;11.93;;;19.60;99.90;;;;;;4994545;28;20539;-53
2023/07/10 00:35:49;;;;;;;24.10;15.02;;;19.60;99.90;;;;;;4999420;28;20084;-52
2023/07/10 00:38:29;;;;;;;18.30;14.63;;;19.60;99.90;;;;;;5000013;28;20167;-50
2023/07/10 00:41:00;;;;;;;28.45;15.93;;;19.60;99.90;;;;;;4999306;28;20058;-50
2023/07/10 00:43:35;;;;;;;28.88;16.23;;;19.60;99.90;;;;;;5002454;28;20052;-51
2023/07/10 00:46:15;;;;;;;35.95;17.45;;;19.60;99.90;;;;;;4994421;28;20038;-49
2023/07/10 00:48:50;;;;;;;35.65;18.48;;;19.50;99.90;;;;;;5000019;28;20038;-49
2023/07/10 00:51:27;;;;;;;37.55;20.00;;;19.50;99.90;;;;;;4997102;28;20294;-50
2023/07/10 00:53:55;;;;;;;41.17;20.67;;;19.50;99.90;;;;;;5002056;28;20084;-50
2023/07/10 00:56:22;;;;;;;43.30;21.52;;;19.40;99.90;;;;;;4999730;28;20038;-51
2023/07/10 00:58:49;;;;;;;37.78;21.73;;;19.40;99.90;;;;;;5000252;28;20407;-50
2023/07/10 01:01:23;;;;;;;37.38;20.58;;;19.40;99.90;;;;;;4984471;28;20046;-50
2023/07/10 01:03:51;;;;;;;37.38;22.27;;;19.30;99.90;;;;;;4998215;28;20046;-51
2023/07/10 01:06:22;;;;;;;32.80;20.58;;;19.30;99.90;;;;;;4999699;28;20088;-49
2023/07/10 01:09:03;;;;;;;36.22;21.05;;;19.30;99.90;;;;;;4996816;28;20069;-53
2023/07/10 01:11:30;;;;;;;38.63;21.52;;;19.30;99.90;;;;;;4996414;28;20093;-52
2023/07/10 01:13:58;;;;;;;37.75;20.55;;;19.30;99.90;;;;;;4996251;28;20038;-49
2023/07/10 01:16:25;;;;;;;35.25;18.77;;;19.30;99.90;;;;;;4996191;28;20057;-50
2023/07/10 01:18:52;;;;;;;28.77;17.95;;;19.20;99.90;;;;;;4996340;28;20050;-53
2023/07/10 01:21:30;;;;;;;25.10;16.58;;;19.20;99.90;;;;;;4999221;28;20041;-49
2023/07/10 01:23:58;;;;;;;30.65;17.95;;;19.20;99.90;;;;;;5017565;28;20079;-49
2023/07/10 01:26:25;;;;;;;24.40;16.58;;;19.20;99.90;;;;;;5018679;28;20042;-50
2023/07/10 01:28:53;;;;;;;26.00;17.25;;;19.10;99.90;;;;;;5019699;28;20080;-51
2023/07/10 01:31:20;;;;;;;24.52;15.82;;;19.10;99.90;;;;;;5017518;28;20044;-52
2023/07/10 01:33:56;;;;;;;24.05;15.27;;;19.10;99.90;;;;;;5001753;28;20041;-49
2023/07/10 01:36:26;;;;;;;21.77;15.05;;;19.10;99.90;;;;;;5019227;28;21525;-51
2023/07/10 01:39:05;;;;;;;20.48;13.90;;;19.10;99.90;;;;;;5002201;28;20045;-54
2023/07/10 01:41:39;;;;;;;19.35;13.52;;;19.10;99.90;;;;;;5020197;28;20120;-51
2023/07/10 01:44:22;;;;;;;21.35;13.88;;;19.10;99.90;;;;;;5019499;28;20046;-50
2023/07/10 01:46:51;;;;;;;24.95;14.50;;;19.10;99.90;;;;;;5002902;28;20046;-52
2023/07/10 01:49:20;;;;;;;22.63;14.82;;;19.10;99.90;;;;;;5018040;28;20563;-51
2023/07/10 01:51:46;;;;;;;25.25;15.93;;;19.10;99.90;;;;;;5019342;28;20309;-50
2023/07/10 01:54:15;;;;;;;25.98;16.23;;;19.10;99.90;;;;;;5018192;28;20095;-52
2023/07/10 01:56:41;;;;;;;26.27;15.82;;;19.10;99.90;;;;;;5006231;28;20052;-50
2023/07/10 01:59:07;;;;;;;25.05;15.52;;;19.00;99.90;;;;;;5018922;28;20072;-52
2023/07/10 02:01:33;;;;;;;31.85;16.52;;;19.00;99.90;;;;;;5017564;28;20041;-52
2023/07/10 02:03:59;;;;;;;26.83;17.05;;;18.90;99.90;;;;;;5017564;28;20049;-50
2023/07/10 02:06:26;;;;;;;28.40;16.98;;;18.90;99.90;;;;;;5019145;28;20100;-51
2023/07/10 02:08:52;;;;;;;31.65;17.20;;;18.90;99.90;;;;;;5018797;28;20038;-51
2023/07/10 02:11:17;;;;;;;28.67;18.33;;;18.90;99.90;;;;;;5003790;28;20041;-49
2023/07/10 02:13:43;;;;;;;28.13;17.20;;;18.90;99.90;;;;;;5018549;28;20041;-49
2023/07/10 02:16:12;;;;;;;27.38;16.67;;;18.80;99.90;;;;;;5001412;28;20049;-52
2023/07/10 02:18:37;;;;;;;29.33;17.25;;;18.80;99.90;;;;;;5017936;28;20041;-49
2023/07/10 02:21:03;;;;;;;22.40;16.20;;;18.80;99.90;;;;;;5017452;28;20403;-52
2023/07/10 02:23:29;;;;;;;26.80;16.85;;;18.80;99.90;;;;;;5017549;28;20061;-49
2023/07/10 02:25:55;;;;;;;27.63;16.98;;;18.80;99.90;;;;;;5018499;28;20124;-52
2023/07/10 02:28:22;;;;;;;27.65;16.60;;;18.80;99.90;;;;;;5018291;28;20124;-52
2023/07/10 02:30:48;;;;;;;24.50;15.35;;;18.80;99.90;;;;;;5000966;28;20397;-54
2023/07/10 02:33:13;;;;;;;28.77;15.95;;;18.80;99.90;;;;;;5018107;28;20037;-53
2023/07/10 02:35:40;;;;;;;31.90;17.67;;;18.80;99.90;;;;;;5018729;28;20099;-48
2023/07/10 02:38:07;;;;;;;28.30;15.98;;;18.70;99.90;;;;;;5018013;28;20034;-50
2023/07/10 02:40:33;;;;;;;27.42;17.33;;;18.80;99.90;;;;;;5019849;28;20378;-49
2023/07/10 02:42:59;;;;;;;33.40;19.73;;;18.80;99.90;;;;;;5019295;28;20051;-52
2023/07/10 02:45:25;;;;;;;27.30;19.42;;;18.70;99.90;;;;;;5021003;28;20033;-49
2023/07/10 02:47:51;;;;;;;30.30;17.60;;;18.80;99.90;;;;;;5018148;28;20041;-50
2023/07/10 02:50:17;;;;;;;26.92;18.90;;;18.80;99.90;;;;;;5018615;28;20168;-50
2023/07/10 02:52:42;;;;;;;29.80;18.95;;;18.70;99.90;;;;;;5019199;28;20046;-49
2023/07/10 02:55:08;;;;;;;28.67;17.85;;;18.70;99.90;;;;;;4989828;28;20067;-52
2023/07/10 02:57:34;;;;;;;29.27;19.52;;;18.80;99.90;;;;;;5017865;28;20049;-50
2023/07/10 03:00:00;;;;;;;24.98;18.00;;;18.70;99.90;;;;;;5019458;28;20073;-50
2023/07/10 03:02:25;;;;;;;27.58;18.58;;;18.80;99.90;;;;;;5013393;28;20056;-50
2023/07/10 03:04:51;;;;;;;26.95;19.08;;;18.70;99.90;;;;;;5016317;28;20491;-50
2023/07/10 03:07:17;;;;;;;25.20;17.67;;;18.70;99.90;;;;;;5017311;28;20507;-50
2023/07/10 03:09:43;;;;;;;31.23;18.98;;;18.70;99.90;;;;;;5018966;28;20043;-49
2023/07/10 03:12:09;;;;;;;32.10;19.63;;;18.70;99.90;;;;;;5019484;28;20049;-49
2023/07/10 03:14:35;;;;;;;24.45;16.85;;;18.70;99.90;;;;;;5016167;28;20042;-50
2023/07/10 03:17:00;;;;;;;26.92;16.05;;;18.70;99.90;;;;;;5018115;28;20041;-50
2023/07/10 03:19:30;;;;;;;25.33;15.25;;;18.70;99.90;;;;;;5015314;28;20052;-48
2023/07/10 03:21:56;;;;;;;19.23;14.75;;;18.60;99.90;;;;;;5021663;28;20112;-51
2023/07/10 03:24:22;;;;;;;17.13;12.27;;;18.60;99.90;;;;;;5024149;28;20045;-51
2023/07/10 03:26:48;;;;;;;22.13;13.88;;;18.60;99.90;;;;;;5020684;28;20369;-52
2023/07/10 03:29:15;;;;;;;17.27;13.57;;;18.60;99.90;;;;;;5018296;28;20088;-48
2023/07/10 03:31:41;;;;;;;19.52;12.88;;;18.60;99.90;;;;;;5000241;28;20041;-50
2023/07/10 03:34:07;;;;;;;16.13;12.68;;;18.60;99.90;;;;;;5020054;28;20033;-49
2023/07/10 03:36:34;;;;;;;25.73;13.57;;;18.60;99.90;;;;;;5010230;28;20161;-51
2023/07/10 03:39:00;;;;;;;15.60;11.43;;;18.60;99.90;;;;;;5021043;28;20046;-49
2023/07/10 03:41:26;;;;;;;17.17;12.23;;;18.60;99.90;;;;;;5018509;28;20499;-49
2023/07/10 03:43:53;;;;;;;16.60;11.88;;;18.60;99.90;;;;;;5018781;28;20033;-51
2023/07/10 03:46:19;;;;;;;20.00;13.45;;;18.60;99.90;;;;;;5021442;28;20045;-50
2023/07/10 03:48:45;;;;;;;20.00;15.10;;;18.60;99.90;;;;;;5020898;28;20125;-53
2023/07/10 03:51:11;;;;;;;20.75;14.77;;;18.60;99.90;;;;;;5022062;28;20053;-49
2023/07/10 03:53:37;;;;;;;16.45;13.48;;;18.60;99.90;;;;;;5019411;28;20496;-48
2023/07/10 03:56:03;;;;;;;20.95;14.85;;;18.60;99.90;;;;;;5017851;28;20073;-54
2023/07/10 03:58:31;;;;;;;20.20;14.60;;;18.60;99.90;;;;;;5008087;28;20041;-51
2023/07/10 04:00:58;;;;;;;19.38;14.48;;;18.70;99.90;;;;;;5008466;28;20061;-52
2023/07/10 04:03:27;;;;;;;21.83;15.30;;;18.70;99.90;;;;;;4997764;28;20049;-55
2023/07/10 04:05:56;;;;;;;18.92;13.05;;;18.70;99.90;;;;;;5017789;28;20501;-51
2023/07/10 04:08:24;;;;;;;18.33;12.75;;;18.60;99.90;;;;;;5019039;28;20083;-50
2023/07/10 04:10:55;;;;;;;17.65;11.80;;;18.60;99.90;;;;;;5018390;28;20037;-52
2023/07/10 04:13:21;;;;;;;16.67;11.68;;;18.70;99.90;;;;;;5015406;28;20080;-49
2023/07/10 04:16:13;;;;;;;17.67;10.88;;;18.60;99.90;;;;;;5018025;28;20129;-51
2023/07/10 04:18:40;;;;;;;16.70;9.97;;;18.60;99.90;;;;;;5016119;28;20562;-52
2023/07/10 04:21:11;;;;;;;16.58;10.20;;;18.60;99.90;;;;;;5016528;28;20744;-50
2023/07/10 04:23:37;;;;;;;14.35;10.20;;;18.60;99.90;;;;;;5016798;28;20524;-51
2023/07/10 04:26:03;;;;;;;14.52;10.10;;;18.60;99.90;;;;;;5018684;28;20037;-49
2023/07/10 04:28:29;;;;;;;12.35;9.23;;;18.60;99.90;;;;;;5018195;28;20403;-48
2023/07/10 04:30:54;;;;;;;12.60;9.13;;;18.60;99.90;;;;;;5018785;28;20033;-50
2023/07/10 04:33:21;;;;;;;11.95;8.65;;;18.70;99.90;;;;;;5002521;28;20045;-50
2023/07/10 04:35:55;;;;;;;13.45;7.90;;;18.70;99.90;;;;;;5014773;28;20050;-49
2023/07/10 04:38:24;;;;;;;9.43;7.15;;;18.70;99.90;;;;;;5023178;28;20175;-49
2023/07/10 04:41:11;;;;;;;10.20;6.78;;;18.70;99.90;;;;;;5022146;28;20099;-49
2023/07/10 04:43:37;;;;;;;10.07;7.22;;;18.80;99.90;;;;;;5022075;28;20046;-49
2023/07/10 04:46:06;;;;;;;8.32;5.95;;;18.80;99.90;;;;;;5021016;28;20041;-50
2023/07/10 04:48:33;;;;;;;11.52;6.63;;;18.80;99.90;;;;;;5021104;28;20045;-52
2023/07/10 04:51:03;;;;;;;9.25;6.72;;;18.80;99.90;;;;;;5016608;28;20046;-53
2023/07/10 04:53:31;;;;;;;15.50;7.25;;;18.80;99.90;;;;;;5019646;28;20056;-51
2023/07/10 04:55:57;;;;;;;11.75;7.28;;;18.80;99.90;;;;;;5018973;28;20036;-50
2023/07/10 04:58:24;;;;;;;9.63;7.22;;;18.80;99.90;;;;;;5020115;28;20030;-49
2023/07/10 05:00:57;;;;;;;12.23;7.43;;;18.80;99.90;;;;;;5018077;28;20046;-49
2023/07/10 05:03:24;;;;;;;10.70;7.18;;;18.80;99.90;;;;;;5015089;28;20050;-50
2023/07/10 05:05:55;;;;;;;10.32;7.25;;;18.80;99.90;;;;;;5020562;28;20045;-50
2023/07/10 05:08:23;;;;;;;10.95;7.43;;;18.80;99.90;;;;;;5018735;28;20035;-52
2023/07/10 05:10:50;;;;;;;11.45;8.07;;;18.80;99.90;;;;;;5019168;28;20041;-50
2023/07/10 05:13:19;;;;;;;9.30;7.25;;;18.80;99.90;;;;;;5014369;28;20147;-49
2023/07/10 05:15:46;;;;;;;9.98;7.35;;;18.80;99.90;;;;;;5018036;28;20056;-51
2023/07/10 05:18:12;;;;;;;11.18;7.43;;;18.90;99.90;;;;;;5018285;28;20061;-50
2023/07/10 05:20:39;;;;;;;11.38;7.47;;;18.90;99.90;;;;;;5014445;28;20042;-51
2023/07/10 05:23:06;;;;;;;11.63;6.93;;;18.90;99.90;;;;;;5016511;28;20373;-50
2023/07/10 05:25:32;;;;;;;10.02;6.68;;;19.00;99.90;;;;;;5001848;28;20077;-49
2023/07/10 05:27:58;;;;;;;10.73;7.30;;;19.00;99.90;;;;;;5017327;28;20034;-49
2023/07/10 05:30:24;;;;;;;9.65;7.10;;;19.10;99.90;;;;;;4998993;28;20060;-50
2023/07/10 05:32:51;;;;;;;10.38;6.20;;;19.20;99.90;;;;;;5011863;28;20037;-51
2023/07/10 05:35:17;;;;;;;9.60;6.43;;;19.20;99.90;;;;;;5015200;28;20468;-53
2023/07/10 05:37:42;;;;;;;8.40;6.20;;;19.20;99.90;;;;;;5018978;28;20088;-50
2023/07/10 05:40:08;;;;;;;9.80;6.43;;;19.30;99.90;;;;;;5014493;28;20388;-55
2023/07/10 05:42:34;;;;;;;8.48;5.75;;;19.30;99.90;;;;;;5013156;28;20037;-52
2023/07/10 05:45:00;;;;;;;12.00;5.45;;;19.30;99.90;;;;;;5013855;28;20033;-53
2023/07/10 05:47:25;;;;;;;7.72;5.32;;;19.30;99.90;;;;;;5016309;28;20485;-53
2023/07/10 05:49:51;;;;;;;8.80;4.90;;;19.30;99.90;;;;;;5017099;28;20029;-54
2023/07/10 05:52:17;;;;;;;8.63;4.78;;;19.40;99.90;;;;;;5001515;28;20484;-56
2023/07/10 05:54:42;;;;;;;7.40;4.80;;;19.40;99.90;;;;;;5019169;28;20037;-54
2023/07/10 05:57:09;;;;;;;6.10;4.68;;;19.40;99.90;;;;;;4997718;28;20045;-52
2023/07/10 05:59:34;;;;;;;8.07;4.57;;;19.40;99.90;;;;;;5017105;28;20163;-56
2023/07/10 06:02:00;;;;;;;6.82;4.72;;;19.40;99.90;;;;;;5012389;28;20050;-55
2023/07/10 06:04:26;;;;;;;7.63;4.50;;;19.40;99.90;;;;;;5013784;28;20409;-56
2023/07/10 06:06:51;;;;;;;12.07;4.63;;;19.40;99.90;;;;;;5011061;28;20074;-56
2023/07/10 06:09:17;;;;;;;11.10;4.20;;;19.40;99.90;;;;;;5014000;28;20051;-55
2023/07/10 06:11:43;;;;;;;7.05;4.43;;;19.50;99.90;;;;;;5010218;28;20107;-55
2023/07/10 06:14:09;;;;;;;8.32;4.05;;;19.50;99.90;;;;;;5017284;28;20060;-55
2023/07/10 06:16:35;;;;;;;9.05;3.63;;;19.50;99.90;;;;;;5018250;28;20647;-54
2023/07/10 06:19:00;;;;;;;8.55;4.30;;;19.50;99.90;;;;;;5020684;28;20133;-53
2023/07/10 06:21:26;;;;;;;7.15;3.33;;;19.50;99.90;;;;;;5018957;28;20042;-56
2023/07/10 06:23:52;;;;;;;8.55;3.75;;;19.50;99.90;;;;;;5020390;28;20052;-54
2023/07/10 06:26:17;;;;;;;10.02;4.10;;;19.60;99.90;;;;;;5001971;28;20488;-55
2023/07/10 06:28:43;;;;;;;8.43;4.13;;;19.60;99.90;;;;;;5013956;28;20041;-55
2023/07/10 06:31:10;;;;;;;10.02;4.10;;;19.60;99.90;;;;;;5017134;28;20049;-55
2023/07/10 06:33:37;;;;;;;6.40;3.92;;;19.50;99.90;;;;;;5019085;28;20134;-55
2023/07/10 06:36:04;;;;;;;7.40;3.70;;;19.50;99.90;;;;;;5017425;28;20042;-53
2023/07/10 06:38:30;;;;;;;7.55;3.95;;;19.50;99.90;;;;;;5017210;28;20053;-55
2023/07/10 06:40:56;;;;;;;8.57;4.00;;;19.60;99.90;;;;;;5002326;28;20044;-55
2023/07/10 06:43:23;;;;;;;6.30;3.95;;;19.60;99.90;;;;;;5020101;28;20057;-55
2023/07/10 06:45:49;;;;;;;7.47;3.88;;;19.70;99.90;;;;;;5020289;28;20034;-54
2023/07/10 06:48:15;;;;;;;10.40;4.28;;;19.80;99.90;;;;;;5019684;28;20427;-54
2023/07/10 06:50:46;;;;;;;12.02;4.38;;;19.80;99.90;;;;;;5001359;28;20053;-54
2023/07/10 06:53:12;;;;;;;12.63;3.88;;;20.00;99.90;;;;;;5001420;28;20455;-55
2023/07/10 06:55:37;;;;;;;6.93;3.63;;;20.00;99.90;;;;;;5010479;28;20184;-54
2023/07/10 06:58:03;;;;;;;9.48;3.83;;;20.10;99.90;;;;;;4988892;28;20038;-54
2023/07/10 07:00:29;;;;;;;12.38;3.53;;;20.10;99.90;;;;;;5024039;28;20294;-55
2023/07/10 07:02:55;;;;;;;6.25;3.25;;;20.30;99.90;;;;;;5020375;28;20535;-54
2023/07/10 07:05:20;;;;;;;9.13;3.42;;;20.40;99.90;;;;;;5022777;28;20047;-53
2023/07/10 07:07:46;;;;;;;8.60;3.30;;;20.50;99.90;;;;;;5020210;28;20026;-54
2023/07/10 07:10:13;;;;;;;8.82;3.47;;;20.60;99.90;;;;;;5023468;28;20056;-54
2023/07/10 07:12:40;;;;;;;9.07;3.22;;;20.60;99.90;;;;;;5022875;28;20053;-53
2023/07/10 07:15:07;;;;;;;6.90;3.25;;;20.60;99.90;;;;;;5024283;28;20432;-52
2023/07/10 07:17:33;;;;;;;9.95;3.05;;;20.70;99.90;;;;;;4991426;28;20056;-55
2023/07/10 07:19:58;;;;;;;9.68;3.85;;;20.70;99.90;;;;;;5004754;28;20041;-54
2023/07/10 07:22:24;;;;;;;7.88;3.08;;;20.70;99.90;;;;;;5021811;28;20466;-53
2023/07/10 07:24:50;;;;;;;9.82;2.90;;;20.80;99.90;;;;;;5021447;28;20484;-56
2023/07/10 07:27:16;;;;;;;12.15;4.10;;;20.90;99.90;;;;;;5022003;28;20481;-56
2023/07/10 07:29:42;;;;;;;9.88;3.45;;;21.00;99.90;;;;;;5021847;28;20049;-55
2023/07/10 07:32:11;;;;;;;13.02;3.10;;;21.10;99.90;;;;;;5018806;28;20041;-54
2023/07/10 07:34:37;;;;;;;8.57;2.80;;;21.20;99.90;;;;;;5021395;28;20045;-54
2023/07/10 07:37:04;;;;;;;8.13;2.60;;;21.20;99.90;;;;;;5011578;28;20042;-53
2023/07/10 07:39:31;;;;;;;11.77;3.28;;;21.30;99.90;;;;;;5023724;28;20046;-52
2023/07/10 07:41:58;;;;;;;11.45;2.60;;;21.40;99.90;;;;;;5021671;28;20041;-51
2023/07/10 07:44:24;;;;;;;10.00;2.80;;;21.50;99.90;;;;;;5022434;28;20396;-53
2023/07/10 07:46:50;;;;;;;11.82;3.10;;;21.50;99.90;;;;;;5022151;28;20689;-54
2023/07/10 07:49:16;;;;;;;10.73;3.00;;;21.50;99.90;;;;;;5024156;28;20112;-55
2023/07/10 07:51:42;;;;;;;9.80;2.97;;;21.60;99.90;;;;;;5021358;28;20201;-53
2023/07/10 07:54:13;;;;;;;10.18;2.78;;;21.60;99.90;;;;;;5020151;28;20044;-52
2023/07/10 07:56:39;;;;;;;11.05;2.97;;;21.70;99.90;;;;;;5005734;28;20499;-52
2023/07/10 07:59:05;;;;;;;10.27;3.40;;;21.80;99.90;;;;;;5004345;28;20029;-54
2023/07/10 08:01:31;;;;;;;10.25;3.15;;;21.90;99.90;;;;;;5019035;28;20042;-55
2023/07/10 08:03:57;;;;;;;8.90;2.65;;;22.00;99.90;;;;;;5010631;28;20038;-54
2023/07/10 08:06:28;;;;;;;7.55;2.67;;;22.10;99.90;;;;;;5002617;28;20041;-54
2023/07/10 08:08:54;;;;;;;6.85;2.50;;;22.10;99.90;;;;;;5021417;28;20041;-54
2023/07/10 08:11:20;;;;;;;8.73;2.70;;;22.30;99.90;;;;;;5022058;28;20515;-55
2023/07/10 08:13:46;;;;;;;8.43;2.67;;;22.30;99.90;;;;;;5020863;28;20041;-54
2023/07/10 08:16:12;;;;;;;11.32;2.95;;;22.40;99.90;;;;;;5004634;28;20059;-53
2023/07/10 08:18:40;;;;;;;10.45;3.00;;;22.40;99.90;;;;;;5022619;28;20125;-53
2023/07/10 08:21:09;;;;;;;6.75;2.88;;;22.40;99.90;;;;;;5021363;28;20041;-55
2023/07/10 08:23:35;;;;;;;12.27;3.60;;;22.40;99.90;;;;;;5016786;28;20041;-54
2023/07/10 08:26:02;;;;;;;10.77;2.80;;;22.50;99.90;;;;;;5019378;28;20612;-54
2023/07/10 08:28:27;;;;;;;5.38;2.20;;;22.60;99.90;;;;;;5021182;28;20037;-54
2023/07/10 08:30:53;;;;;;;10.85;3.30;;;22.60;99.90;;;;;;5006210;28;20048;-54
2023/07/10 08:33:19;;;;;;;8.30;2.53;;;22.70;99.90;;;;;;5019473;28;20037;-56
2023/07/10 08:36:03;;;;;;;7.85;2.88;;;22.70;99.90;;;;;;5019791;28;20048;-53
2023/07/10 08:38:31;;;;;;;9.50;2.67;;;22.70;99.90;;;;;;5020474;28;20265;-55
2023/07/10 08:41:00;;;;;;;6.78;2.53;;;22.80;99.90;;;;;;5021676;28;20042;-55
2023/07/10 08:43:37;;;;;;;9.27;2.80;;;22.90;99.90;;;;;;5020754;28;20056;-54
2023/07/10 08:46:19;;;;;;;9.70;3.05;;;23.10;99.90;;;;;;5022488;28;20038;-53
2023/07/10 08:48:55;;;;;;;8.65;2.58;;;23.20;99.90;;;;;;5022020;28;20038;-53
2023/07/10 08:51:20;;;;;;;10.57;2.80;;;23.40;99.90;;;;;;5019077;28;20112;-54
2023/07/10 08:54:08;;;;;;;7.47;2.53;;;23.50;99.90;;;;;;5002057;28;20057;-56
2023/07/10 08:56:49;;;;;;;7.13;3.03;;;23.60;99.90;;;;;;5019626;28;20033;-53
2023/07/10 08:59:38;;;;;;;10.50;2.45;;;23.70;99.90;;;;;;5020622;28;20569;-53
2023/07/10 09:02:15;;;;;;;7.05;2.65;;;23.70;99.90;;;;;;5017654;28;20084;-58
2023/07/10 09:04:43;;;;;;;7.72;2.63;;;23.70;99.90;;;;;;5021536;28;20079;-59
2023/07/10 09:07:10;;;;;;;13.70;2.95;;;23.70;99.90;;;;;;5017604;28;20077;-58
2023/07/10 09:09:49;;;;;;;6.93;2.92;;;23.80;99.90;;;;;;5020733;28;20037;-59
2023/07/10 09:12:29;;;;;;;9.40;2.40;;;23.90;99.90;;;;;;5020751;28;20119;-58
2023/07/10 09:15:01;;;;;;;8.32;2.95;;;24.10;99.90;;;;;;5019770;28;20037;-58
2023/07/10 09:17:35;;;;;;;7.95;2.30;;;24.10;99.90;;;;;;5018631;28;20136;-58
2023/07/10 09:20:05;;;;;;;11.13;2.85;;;24.20;99.90;;;;;;5021416;28;20044;-57
2023/07/10 09:22:33;;;;;;;8.68;2.30;;;24.30;99.90;;;;;;5020485;28;20052;-58
2023/07/10 09:24:59;;;;;;;13.88;2.88;;;24.40;99.90;;;;;;5021366;28;20065;-59
2023/07/10 09:27:25;;;;;;;8.65;2.63;;;24.30;99.90;;;;;;5019607;28;20034;-59
2023/07/10 09:29:54;;;;;;;11.30;2.83;;;24.30;99.90;;;;;;5021023;28;20082;-59
2023/07/10 09:32:20;;;;;;;8.70;2.60;;;24.40;99.90;;;;;;5016557;28;20038;-58
2023/07/10 09:34:50;;;;;;;10.88;2.58;;;24.50;99.90;;;;;;5020055;28;20103;-59
2023/07/10 09:37:26;;;;;;;8.18;2.45;;;24.50;99.90;;;;;;5020204;28;20050;-59
2023/07/10 09:39:52;;;;;;;12.68;3.05;;;24.50;99.90;;;;;;5021000;28;20076;-59
2023/07/10 09:42:20;;;;;;;10.57;2.95;;;24.70;99.90;;;;;;5019683;28;20034;-58
2023/07/10 09:44:55;;;;;;;8.02;2.53;;;24.70;99.40;;;;;;5020325;28;20037;-59
2023/07/10 09:47:22;;;;;;;9.90;3.20;;;24.60;99.20;;;;;;5008351;28;20084;-58
2023/07/10 09:49:55;;;;;;;12.05;2.75;;;24.40;99.20;;;;;;5019752;28;20069;-60
2023/07/10 09:52:29;;;;;;;8.40;2.60;;;24.50;99.50;;;;;;5019722;28;20476;-59
2023/07/10 09:55:11;;;;;;;11.05;2.67;;;24.60;99.80;;;;;;5004220;28;20564;-58
2023/07/10 09:57:58;;;;;;;11.15;3.25;;;24.80;99.50;;;;;;5019031;28;20425;-55
2023/07/10 10:00:25;;;;;;;10.55;3.10;;;25.00;99.30;;;;;;5020439;28;20073;-58
2023/07/10 10:03:02;;;;;;;8.68;2.80;;;25.00;98.80;;;;;;5017926;28;20484;-59
2023/07/10 10:05:29;;;;;;;10.50;3.20;;;24.80;98.30;;;;;;5002729;28;20496;-57
2023/07/10 10:08:10;;;;;;;11.35;2.60;;;24.70;98.10;;;;;;5017812;28;20045;-59
2023/07/10 10:10:39;;;;;;;7.88;2.83;;;24.70;98.60;;;;;;5002943;28;20069;-57
2023/07/10 10:13:12;;;;;;;14.38;3.40;;;24.80;98.90;;;;;;5022026;28;20565;-58
2023/07/10 10:15:43;;;;;;;10.25;2.67;;;25.10;98.60;;;;;;5019814;28;20050;-57
2023/07/10 10:18:47;;;;;;;9.17;2.27;;;25.30;98.00;;;;;;5019525;28;20042;-59
2023/07/10 10:21:16;;;;;;;14.40;3.33;;;25.20;98.00;;;;;;5001170;28;20060;-59
2023/07/10 10:23:45;;;;;;;16.38;3.50;;;25.20;97.60;;;;;;5019218;28;20408;-55
2023/07/10 10:26:32;;;;;;;10.75;2.63;;;25.10;97.70;;;;;;5018454;28;20130;-58
2023/07/10 10:29:12;;;;;;;12.35;3.63;;;24.90;97.60;;;;;;5020470;28;20080;-58
2023/07/10 10:31:40;;;;;;;16.10;3.47;;;24.80;97.60;;;;;;5019554;28;20045;-58
2023/07/10 10:34:31;;;;;;;11.63;3.17;;;24.90;98.00;;;;;;5003902;28;20037;-58
2023/07/10 10:37:25;;;;;;;13.15;2.63;;;24.80;97.60;;;;;;4999426;28;20045;-55
2023/07/10 10:40:11;;;;;;;12.35;2.95;;;24.70;97.40;;;;;;5020584;28;20042;-59
2023/07/10 10:42:49;;;;;;;13.80;2.83;;;24.80;97.40;;;;;;5018573;28;20041;-59
2023/07/10 10:45:41;;;;;;;11.52;2.85;;;25.00;97.40;;;;;;5019287;28;20366;-58
2023/07/10 10:48:25;;;;;;;7.05;2.53;;;25.40;96.70;;;;;;5019878;28;20120;-58
2023/07/10 10:50:56;;;;;;;12.13;2.83;;;25.50;96.10;;;;;;4998645;28;20044;-58
2023/07/10 10:53:30;;;;;;;10.65;2.70;;;25.60;95.70;;;;;;5019044;28;20041;-58
2023/07/10 10:56:14;;;;;;;9.88;2.47;;;25.70;95.70;;;;;;5021494;28;20041;-57
2023/07/10 10:59:03;;;;;;;10.57;2.63;;;25.90;95.40;;;;;;5020768;28;20132;-59
2023/07/10 11:01:48;;;;;;;8.43;2.38;;;26.20;94.70;;;;;;5015416;28;20054;-58
2023/07/10 11:04:13;;;;;;;7.03;2.25;;;26.40;94.50;;;;;;5019121;28;20061;-59
2023/07/10 11:06:58;;;;;;;9.25;2.65;;;26.60;94.20;;;;;;5017542;28;20066;-56
2023/07/10 11:09:32;;;;;;;10.88;2.50;;;26.80;94.00;;;;;;5019095;28;20124;-58
2023/07/10 11:12:00;;;;;;;9.00;2.30;;;26.90;93.20;;;;;;5021028;28;20100;-59
2023/07/10 11:14:27;;;;;;;7.65;2.35;;;26.60;92.70;;;;;;5019271;28;20048;-59
2023/07/10 11:16:54;;;;;;;13.55;2.55;;;26.50;91.60;;;;;;5001630;28;20049;-58
2023/07/10 11:19:31;;;;;;;8.70;2.30;;;26.40;91.40;;;;;;5019004;28;20107;-59
2023/07/10 11:22:20;;;;;;;11.70;2.60;;;26.40;91.90;;;;;;5017572;28;20242;-58
2023/07/10 11:24:52;;;;;;;12.60;2.58;;;26.60;92.20;;;;;;5019432;28;20459;-59
2023/07/10 11:27:47;;;;;;;10.68;2.28;;;26.80;92.00;;;;;;5001825;28;20044;-59
2023/07/10 11:30:15;;;;;;;12.77;2.60;;;26.80;91.30;;;;;;5000552;28;20053;-59
2023/07/10 11:33:17;;;;;;;8.40;2.10;;;26.90;90.00;;;;;;4985303;28;20413;-58
2023/07/10 11:36:11;;;;;;;8.55;2.15;;;26.90;89.30;;;;;;5018359;28;20536;-59
2023/07/10 11:39:05;;;;;;;5.80;1.90;;;27.00;89.20;;;;;;5019527;28;20084;-59
2023/07/10 11:41:36;;;;;;;5.85;2.03;;;27.00;86.00;;;;;;5021187;28;20034;-59
2023/07/10 11:44:22;;;;;;;8.38;2.47;;;27.10;83.80;;;;;;5023711;28;20128;-58
2023/07/10 11:47:17;;;;;;;8.63;2.22;;;27.20;84.60;;;;;;5007737;28;20052;-59
2023/07/10 11:49:52;;;;;;;8.85;2.25;;;27.50;85.30;;;;;;5024095;28;20045;-55
2023/07/10 11:52:20;;;;;;;9.10;1.88;;;27.70;83.50;;;;;;5021655;28;20072;-60
2023/07/10 11:54:49;;;;;;;9.00;2.38;;;27.90;84.40;;;;;;5010950;28;20075;-59
2023/07/10 11:57:19;;;;;;;5.95;2.08;;;28.20;82.10;;;;;;5023106;28;20045;-58
2023/07/10 11:59:47;;;;;;;7.18;2.00;;;28.40;80.10;;;;;;5022179;28;20034;-59
2023/07/10 12:02:36;;;;;;;6.68;2.00;;;28.40;79.60;;;;;;5020323;28;20048;-59
2023/07/10 12:05:16;;;;;;;8.43;2.20;;;28.50;81.40;;;;;;4989131;28;20069;-57
2023/07/10 12:08:12;;;;;;;6.85;2.20;;;28.60;80.90;;;;;;5004541;28;20045;-59
2023/07/10 12:10:39;;;;;;;5.25;1.63;;;28.50;79.10;;;;;;5023785;28;20107;-59
2023/07/10 12:13:27;;;;;;;13.32;1.83;;;28.60;80.50;;;;;;5021550;28;20045;-59
2023/07/10 12:15:54;;;;;;;8.85;2.22;;;28.70;80.60;;;;;;5020213;28;20037;-59
2023/07/10 12:18:30;;;;;;;6.90;2.17;;;28.80;78.80;;;;;;5021803;28;20045;-59
2023/07/10 12:21:01;;;;;;;6.97;2.05;;;28.50;78.20;;;;;;5020826;28;20033;-58
2023/07/10 12:23:27;;;;;;;8.25;2.25;;;28.20;78.60;;;;;;5020478;28;20068;-57
2023/07/10 12:25:55;;;;;;;8.82;2.45;;;28.10;77.50;;;;;;5009534;28;20042;-58
2023/07/10 12:28:26;;;;;;;8.82;2.17;;;28.10;77.90;;;;;;5019734;28;20034;-59
2023/07/10 12:30:54;;;;;;;6.60;2.15;;;28.10;78.10;;;;;;5005495;28;20026;-59
2023/07/10 12:33:37;;;;;;;7.07;2.40;;;28.30;79.20;;;;;;5019717;28;20400;-59
2023/07/10 12:36:25;;;;;;;7.00;2.03;;;28.30;78.40;;;;;;5020799;28;20088;-59
2023/07/10 12:38:54;;;;;;;7.43;2.08;;;28.40;77.60;;;;;;5021403;28;20123;-60
2023/07/10 12:41:22;;;;;;;8.93;2.28;;;28.30;77.50;;;;;;5020840;28;20053;-59
2023/07/10 12:43:57;;;;;;;6.45;2.40;;;28.10;76.40;;;;;;5022058;28;20033;-58
2023/07/10 12:46:25;;;;;;;4.78;1.40;;;28.10;76.10;;;;;;5004336;28;20095;-58
2023/07/10 12:48:59;;;;;;;3.83;1.50;;;28.20;73.40;;;;;;5021755;28;20045;-59
2023/07/10 12:51:31;;;;;;;5.00;1.63;;;28.30;71.70;;;;;;5017484;28;20182;-58
2023/07/10 12:54:02;;;;;;;5.70;1.83;;;28.40;72.00;;;;;;5021275;28;20042;-59